CheckWX is a tool to help pilots better visualize weather data.  It is not intended as a substitute for an official pre-flight weather briefing.

05:16:50 UTC

DAUA METAR
Touat Cheikh Sidi Mohamed Belkebir Airport
Algeria
Current

1 hour ago

DAUA 240400Z 07011KT CAVOK 30/01 Q1011
Observed
Jul-24 @ 04:00 UTC
Wind
  • 070° at 11 KTS
Visibility
10,000+ meters
Flight Rules
VFR
Cloud Levels
  • Clear skies
Temperature
30°C / 86°F
Dewpoint
C / 34°F
Humidity
15%
Altimeter
29.85" Hg
Pressure
1010.92 hPa
Previous

2 hours ago

DAUA 240300Z 08009KT CAVOK 30/02 Q1011
Observed
Jul-24 @ 03:00 UTC
Wind
  • 080° at 9 KTS
Visibility
10,000+ meters
Flight Rules
VFR
Cloud Levels
  • Clear skies
Temperature
30°C / 86°F
Dewpoint
C / 36°F
Humidity
17%
Altimeter
29.85" Hg
Pressure
1010.92 hPa
Previous

3 hours ago

DAUA 240200Z 08008KT CAVOK 32/02 Q1011
Observed
Jul-24 @ 02:00 UTC
Wind
  • 080° at 8 KTS
Visibility
10,000+ meters
Flight Rules
VFR
Cloud Levels
  • Clear skies
Temperature
32°C / 90°F
Dewpoint
C / 36°F
Humidity
15%
Altimeter
29.85" Hg
Pressure
1010.92 hPa